Cariboo G, British Columbia

8:39 AM PDT on July 28, 2016 (GMT -0700)
108 Ranch | | Change Station

Elev 3077 ft 51.74 °N, 121.37 °W | Updated 5 days ago

Partly Cloudy
Partly Cloudy
71 °F
Feels Like 71 °F
N
6
Wind Variable Wind from North
Gusts mph

Today
High -- | Low -- °F
--% Chance of Precip.
Yesterday
High -- | Low -- °F
Precip. -- in
Pressure 30.18 in
Visibility 9.0 miles
Clouds Clear
Dew Point 53 °F
Humidity 54%
Rainfall in
Snow Depth Not available.
5:23 AM 8:59 PM
Waning Crescent, 31% visible
METAR CYIN 281500Z AUTO 32009KT 9SM CLR 19/10 A3024 RMK SLP218 DENSITY ALT 4600FT
Pressure 30.18 in
Visibility 9.0 miles
Clouds Clear
Dew Point 53 °F
Humidity 54%
Rainfall in
Snow Depth Not available.
5:23 AM 8:59 PM
Waning Crescent, 31% visible
METAR CYIN 281500Z AUTO 32009KT 9SM CLR 19/10 A3024 RMK SLP218 DENSITY ALT 4600FT

10-Day Weather Forecast

No radar image for this location.
×

Almanac

Astronomy

Jul. 28, 2016 Rise Set
Actual Time
Civil Twilight
Nautical Twilight
Astronomical Twilight
Moon
Length of Visible Light
Length of Day
Tomorrow will be .
, % of the Moon is Illuminated

Today's Extremes

Country Highs Country Lows

Community

WunderPhotos

Upload Photos

1,928,129 photos uploaded!

WunderBlog® & News

Nearby

Air Quality

  Air Quality AQ Index Pollutant
Not available.

Snow Depth

Station Depth Elevation

Earthquake Activity

City Distance Mag. Time & Date
Minimum magnitude displayed is 2.5.

Coastal Water Temperatures

Place Temperature

Stations

Nearby Weather Stations

Station Location Temp. Windchill Dew Point Humidity Wind Precip. Elev Updated Type
                   

Watches & Warnings

There are currently no watches in effect.